createdAt,value
2023-01-01T00:00:51.679Z,59.30
2023-01-01T00:03:20.610Z,59.20
2023-01-01T00:05:49.085Z,59.00
2023-01-01T00:08:17.575Z,59.10
2023-01-01T00:10:47.318Z,59.10
2023-01-01T00:13:16.159Z,58.90
2023-01-01T00:15:44.507Z,59.00
2023-01-01T00:18:13.065Z,58.90
2023-01-01T00:20:41.457Z,58.90
2023-01-01T00:23:09.971Z,58.80
2023-01-01T00:25:38.469Z,58.80
2023-01-01T00:28:10.099Z,58.80
2023-01-01T00:30:41.913Z,58.80
2023-01-01T00:33:10.302Z,58.60
2023-01-01T00:35:39.041Z,58.60
2023-01-01T00:38:08.671Z,58.50
2023-01-01T00:40:37.440Z,58.50
2023-01-01T00:43:07.250Z,58.50
2023-01-01T00:45:35.732Z,58.40
2023-01-01T00:48:05.064Z,58.40
2023-01-01T00:50:33.473Z,58.40
2023-01-01T00:53:01.971Z,58.40
2023-01-01T00:55:30.935Z,58.40
2023-01-01T00:57:59.861Z,58.30
2023-01-01T01:00:30.365Z,58.00
2023-01-01T01:02:59.299Z,58.10
2023-01-01T01:05:28.531Z,58.10
2023-01-01T01:07:57.991Z,58.10
2023-01-01T01:10:27.211Z,58.10
2023-01-01T01:12:56.053Z,58.00
2023-01-01T01:15:24.723Z,58.00
2023-01-01T01:17:54.588Z,57.90
2023-01-01T01:20:22.978Z,57.80
2023-01-01T01:22:52.016Z,57.70
2023-01-01T01:25:20.537Z,57.70
2023-01-01T01:27:48.939Z,58.30
2023-01-01T01:30:17.496Z,57.60
2023-01-01T01:32:46.379Z,57.60
2023-01-01T01:35:16.685Z,57.60
2023-01-01T01:37:45.079Z,57.50
2023-01-01T01:40:16.502Z,57.30
2023-01-01T01:42:48.336Z,57.30
2023-01-01T01:45:18.164Z,57.10
2023-01-01T01:47:51.534Z,57.20
2023-01-01T01:50:27.460Z,57.10
2023-01-01T01:53:05.071Z,57.10
2023-01-01T01:55:38.353Z,56.70
2023-01-01T01:58:09.302Z,56.80
2023-01-01T02:00:37.960Z,56.90
2023-01-01T02:03:09.798Z,56.80
2023-01-01T02:05:42.040Z,56.60
2023-01-01T02:08:12.116Z,56.40
2023-01-01T02:10:40.503Z,56.40
2023-01-01T02:13:09.567Z,56.30
2023-01-01T02:15:43.500Z,56.40
2023-01-01T02:18:16.199Z,56.30
2023-01-01T02:20:55.095Z,56.30
2023-01-01T02:23:57.160Z,56.10
2023-01-01T02:26:54.550Z,56.00
2023-01-01T02:29:43.209Z,56.10
2023-01-01T02:32:15.449Z,55.90
2023-01-01T02:34:49.905Z,56.00
2023-01-01T02:37:21.153Z,55.90
2023-01-01T02:39:55.660Z,56.20
2023-01-01T02:42:29.381Z,56.00
2023-01-01T02:45:00.576Z,55.80
2023-01-01T02:47:29.135Z,55.90
2023-01-01T02:50:05.342Z,55.90
2023-01-01T02:52:58.020Z,55.80
2023-01-01T02:55:37.960Z,55.50
2023-01-01T02:58:32.390Z,55.60
2023-01-01T03:01:13.166Z,56.30
2023-01-01T03:03:47.735Z,55.60
2023-01-01T03:06:27.230Z,55.50
2023-01-01T03:09:06.406Z,55.50
2023-01-01T03:11:44.836Z,55.50
2023-01-01T03:14:22.665Z,55.40
2023-01-01T03:16:58.499Z,55.40
2023-01-01T03:19:31.583Z,55.30
2023-01-01T03:22:05.629Z,55.40
2023-01-01T03:24:39.219Z,55.40
2023-01-01T03:27:12.596Z,55.20
2023-01-01T03:29:45.202Z,55.40
2023-01-01T03:32:21.271Z,55.30
2023-01-01T03:34:56.525Z,55.20
2023-01-01T03:37:31.765Z,55.10
2023-01-01T03:40:01.270Z,55.30
2023-01-01T03:42:37.010Z,55.40
2023-01-01T03:45:10.934Z,55.10
2023-01-01T03:47:41.213Z,55.20
2023-01-01T03:50:10.726Z,55.10
2023-01-01T03:52:48.093Z,55.30
2023-01-01T03:55:23.419Z,55.00
2023-01-01T03:58:02.847Z,55.20
2023-01-01T04:00:35.940Z,55.10
2023-01-01T04:03:09.392Z,55.20
2023-01-01T04:05:42.035Z,55.10
2023-01-01T04:08:12.200Z,55.10
2023-01-01T04:10:44.781Z,55.10
2023-01-01T04:13:14.398Z,55.10
2023-01-01T04:15:43.487Z,55.20
2023-01-01T04:18:13.923Z,55.20
2023-01-01T04:20:42.393Z,55.10
2023-01-01T04:23:10.758Z,55.10
2023-01-01T04:25:39.267Z,55.10
2023-01-01T04:28:08.672Z,55.10
2023-01-01T04:33:04.471Z,55.20
2023-01-01T04:35:34.790Z,55.20
2023-01-01T04:38:03.798Z,55.20
2023-01-01T04:40:32.164Z,55.30
2023-01-01T04:43:00.458Z,55.10
2023-01-01T04:45:28.984Z,55.30
2023-01-01T04:47:57.526Z,55.30
2023-01-01T04:50:26.000Z,55.30
2023-01-01T04:52:56.428Z,55.30
2023-01-01T04:55:24.837Z,55.90
2023-01-01T04:57:53.510Z,55.40
2023-01-01T05:00:23.163Z,55.30
2023-01-01T05:02:52.317Z,55.40
2023-01-01T05:05:22.332Z,55.40
2023-01-01T05:07:51.989Z,55.40
2023-01-01T05:10:21.788Z,55.50
2023-01-01T05:12:50.221Z,55.40
2023-01-01T05:15:18.709Z,55.40
2023-01-01T05:17:47.206Z,55.40
2023-01-01T05:20:15.744Z,55.50
2023-01-01T05:22:44.215Z,55.40
2023-01-01T05:25:13.122Z,55.50
2023-01-01T05:27:42.998Z,55.50
2023-01-01T05:30:12.687Z,55.50
2023-01-01T05:32:41.113Z,55.50
2023-01-01T05:35:10.460Z,55.50
2023-01-01T05:37:39.178Z,55.50
2023-01-01T05:40:09.159Z,55.50
2023-01-01T05:42:37.465Z,55.50
2023-01-01T05:45:10.390Z,55.60
2023-01-01T05:47:39.330Z,55.30
2023-01-01T05:52:36.962Z,55.40
2023-01-01T05:55:06.080Z,55.40
2023-01-01T05:57:34.597Z,55.50
2023-01-01T06:00:03.177Z,55.50
2023-01-01T06:02:36.485Z,55.50
2023-01-01T06:05:07.461Z,55.60
2023-01-01T06:07:36.034Z,55.80
2023-01-01T06:10:06.381Z,55.90
2023-01-01T06:12:35.186Z,55.90
2023-01-01T06:15:03.529Z,55.90
2023-01-01T06:17:31.905Z,56.00
2023-01-01T06:20:01.914Z,56.10
2023-01-01T06:22:30.466Z,56.40
2023-01-01T06:24:59.253Z,56.50
2023-01-01T06:27:27.916Z,56.50
2023-01-01T06:29:57.730Z,56.50
2023-01-01T06:32:26.302Z,56.60
2023-01-01T06:34:54.687Z,56.60
2023-01-01T06:37:24.827Z,56.60
2023-01-01T06:39:53.240Z,56.50
2023-01-01T06:42:21.812Z,56.50
2023-01-01T06:44:50.110Z,56.50
2023-01-01T06:47:19.914Z,56.50
2023-01-01T06:49:49.615Z,56.50
2023-01-01T06:52:18.173Z,56.50
2023-01-01T06:54:49.178Z,56.50
2023-01-01T06:57:17.678Z,56.50
2023-01-01T06:59:46.076Z,56.50
2023-01-01T07:02:14.677Z,56.40
2023-01-01T07:04:43.401Z,56.50
2023-01-01T07:07:12.171Z,56.50
2023-01-01T07:09:40.772Z,56.50
2023-01-01T07:12:10.713Z,56.50
2023-01-01T07:14:39.122Z,56.50
2023-01-01T07:17:07.579Z,56.70
2023-01-01T07:19:36.800Z,56.80
2023-01-01T07:22:05.139Z,56.90
2023-01-01T07:24:33.566Z,57.00
2023-01-01T07:27:02.132Z,57.00
2023-01-01T07:29:33.529Z,57.10
2023-01-01T07:32:03.936Z,57.00
2023-01-01T07:34:32.369Z,57.00
2023-01-01T07:37:01.708Z,57.00
2023-01-01T07:39:30.004Z,57.10
2023-01-01T07:41:58.672Z,57.20
2023-01-01T07:44:27.175Z,57.20
2023-01-01T07:47:05.020Z,57.20
2023-01-01T07:49:33.679Z,57.20
2023-01-01T07:52:02.123Z,57.30
2023-01-01T07:54:30.494Z,57.30
2023-01-01T07:56:58.955Z,57.50
2023-01-01T07:59:27.366Z,57.60
2023-01-01T08:01:56.103Z,57.70
2023-01-01T08:04:26.806Z,57.80
2023-01-01T08:06:55.450Z,58.00
2023-01-01T08:09:27.222Z,58.10
2023-01-01T08:11:58.512Z,58.20
2023-01-01T08:14:26.900Z,58.40
2023-01-01T08:16:55.281Z,58.30
2023-01-01T08:19:25.480Z,58.30
2023-01-01T08:21:54.175Z,58.40
2023-01-01T08:24:22.558Z,58.40
2023-01-01T08:26:51.404Z,58.60
2023-01-01T08:29:21.313Z,58.60
2023-01-01T08:31:49.830Z,58.70
2023-01-01T08:34:18.199Z,58.70
2023-01-01T08:36:48.247Z,58.70
2023-01-01T08:39:16.621Z,58.80
2023-01-01T08:41:44.975Z,58.80
2023-01-01T08:44:13.351Z,58.90
2023-01-01T08:46:41.739Z,59.00
2023-01-01T08:49:10.477Z,59.00
2023-01-01T08:51:39.260Z,59.10
2023-01-01T08:54:09.272Z,59.10
2023-01-01T08:56:38.365Z,59.10
2023-01-01T08:59:06.765Z,59.10
2023-01-01T09:01:35.326Z,59.10
2023-01-01T09:04:03.900Z,59.10
2023-01-01T09:06:32.329Z,59.10
2023-01-01T09:09:01.177Z,59.10
2023-01-01T09:11:30.981Z,59.10
2023-01-01T09:13:59.266Z,59.10
2023-01-01T09:16:28.046Z,59.10
2023-01-01T09:18:56.698Z,59.10
2023-01-01T09:21:25.412Z,59.10
2023-01-01T09:23:53.832Z,59.10
2023-01-01T09:26:22.425Z,59.00
2023-01-01T09:28:53.355Z,59.10
2023-01-01T09:31:22.387Z,59.20
2023-01-01T09:33:50.835Z,59.10
2023-01-01T09:36:30.412Z,59.10
2023-01-01T09:38:59.962Z,59.10
2023-01-01T09:41:49.947Z,59.20
2023-01-01T09:44:39.487Z,59.10
2023-01-01T09:47:21.473Z,59.10
2023-01-01T09:49:51.587Z,59.20
2023-01-01T09:52:21.823Z,59.10
2023-01-01T09:54:57.363Z,59.10
2023-01-01T09:57:31.228Z,59.10
2023-01-01T10:00:01.826Z,59.20
2023-01-01T10:02:53.464Z,59.20
2023-01-01T10:05:34.716Z,59.10
2023-01-01T10:08:11.355Z,59.20
2023-01-01T10:10:42.991Z,59.20
2023-01-01T10:13:24.109Z,59.30
2023-01-01T10:16:00.435Z,59.20
2023-01-01T10:18:34.884Z,59.20
2023-01-01T10:21:10.768Z,59.30
2023-01-01T10:23:45.101Z,59.30
2023-01-01T10:26:19.102Z,59.30
2023-01-01T10:28:55.811Z,59.30
2023-01-01T10:31:34.893Z,59.30
2023-01-01T10:34:14.538Z,59.30
2023-01-01T10:36:44.617Z,59.30
2023-01-01T10:39:16.968Z,59.30
2023-01-01T10:41:45.945Z,59.30
2023-01-01T10:44:17.785Z,59.50
2023-01-01T10:46:52.126Z,59.60
2023-01-01T10:49:21.234Z,59.50
2023-01-01T10:51:52.390Z,59.50
2023-01-01T10:54:34.194Z,59.60
2023-01-01T10:57:16.282Z,59.60
2023-01-01T10:59:52.036Z,59.50
2023-01-01T11:02:26.508Z,59.60
2023-01-01T11:05:21.444Z,59.60
2023-01-01T11:07:51.357Z,59.60
2023-01-01T11:10:23.388Z,59.60
2023-01-01T11:13:09.189Z,59.50
2023-01-01T11:15:40.891Z,59.50
2023-01-01T11:18:16.809Z,59.50
2023-01-01T11:20:45.642Z,59.50
2023-01-01T11:23:33.215Z,59.60
2023-01-01T11:26:06.955Z,59.60
2023-01-01T11:28:37.164Z,59.60
2023-01-01T11:31:15.575Z,59.60
2023-01-01T11:33:52.642Z,59.60
2023-01-01T11:36:27.111Z,59.60
2023-01-01T11:39:20.947Z,59.90
2023-01-01T11:41:51.819Z,59.60
2023-01-01T11:44:33.612Z,59.60
2023-01-01T11:47:02.868Z,59.60
2023-01-01T11:49:33.588Z,59.60
2023-01-01T11:52:02.552Z,59.50
2023-01-01T11:54:35.963Z,59.50
2023-01-01T11:57:14.326Z,59.50
2023-01-01T11:59:48.486Z,59.50
2023-01-01T12:02:25.128Z,59.60
2023-01-01T12:05:04.959Z,59.60
2023-01-01T12:07:38.147Z,59.50
2023-01-01T12:10:16.516Z,59.60
2023-01-01T12:12:52.795Z,59.60
2023-01-01T12:15:27.554Z,59.60
2023-01-01T12:18:03.088Z,59.60
2023-01-01T12:20:37.013Z,59.60
2023-01-01T12:23:05.582Z,59.60
2023-01-01T12:25:41.067Z,59.60
2023-01-01T12:28:29.550Z,59.60
2023-01-01T12:31:04.706Z,59.60
2023-01-01T12:33:58.976Z,59.70
2023-01-01T12:36:43.012Z,59.70
2023-01-01T12:40:24.814Z,59.60
2023-01-01T12:43:03.696Z,59.60
2023-01-01T12:45:52.679Z,59.60
2023-01-01T12:48:38.919Z,59.60
2023-01-01T12:51:20.825Z,59.60
2023-01-01T12:54:01.144Z,59.60
2023-01-01T12:56:33.713Z,59.60
2023-01-01T12:59:12.711Z,59.60
2023-01-01T13:01:42.306Z,59.60
2023-01-01T13:04:16.003Z,59.50
2023-01-01T13:06:50.266Z,59.40
2023-01-01T13:09:22.906Z,59.40
2023-01-01T13:11:57.065Z,59.40
2023-01-01T13:14:26.963Z,59.40
2023-01-01T13:16:57.686Z,59.40
2023-01-01T13:19:32.476Z,59.40
2023-01-01T13:22:42.981Z,59.40
2023-01-01T13:25:24.133Z,59.40
2023-01-01T13:28:13.254Z,59.30
2023-01-01T13:30:53.255Z,59.30
2023-01-01T13:33:27.191Z,59.20
2023-01-01T13:36:33.160Z,59.20
2023-01-01T13:39:02.521Z,59.20
2023-01-01T13:41:35.688Z,59.30
2023-01-01T13:44:20.391Z,59.20
2023-01-01T13:47:17.070Z,59.20
2023-01-01T13:50:07.186Z,59.10
2023-01-01T13:53:14.063Z,59.10
2023-01-01T13:56:03.781Z,59.10
2023-01-01T13:59:15.350Z,59.10
2023-01-01T14:01:53.226Z,59.00
2023-01-01T14:04:40.059Z,58.90
2023-01-01T14:07:49.640Z,58.90
2023-01-01T14:10:29.703Z,59.00
2023-01-01T14:13:16.144Z,58.80
2023-01-01T14:15:54.590Z,59.00
2023-01-01T14:18:32.934Z,58.90
2023-01-01T14:21:02.947Z,59.00
2023-01-01T14:23:35.459Z,59.00
2023-01-01T14:26:10.151Z,59.00
2023-01-01T14:28:40.163Z,59.00
2023-01-01T14:31:15.409Z,58.90
2023-01-01T14:33:44.135Z,58.90
2023-01-01T14:36:23.136Z,58.90
2023-01-01T14:38:53.882Z,58.90
2023-01-01T14:41:28.744Z,59.00
2023-01-01T14:44:04.179Z,59.00
2023-01-01T14:46:33.214Z,59.10
2023-01-01T14:49:09.767Z,59.10
2023-01-01T14:51:45.721Z,59.00
2023-01-01T14:54:20.201Z,59.20
2023-01-01T14:56:51.530Z,59.20
2023-01-01T14:59:26.500Z,59.20
2023-01-01T15:02:03.632Z,59.20
2023-01-01T15:04:32.405Z,59.20
2023-01-01T15:07:02.802Z,59.20
2023-01-01T15:09:34.303Z,59.20
2023-01-01T15:12:03.767Z,59.20
2023-01-01T15:14:37.374Z,59.20
2023-01-01T15:17:08.516Z,59.20
2023-01-01T15:19:38.460Z,59.20
2023-01-01T15:22:15.470Z,59.20
2023-01-01T15:24:46.844Z,59.20
2023-01-01T15:27:24.467Z,59.20
2023-01-01T15:29:53.059Z,59.10
2023-01-01T15:32:27.873Z,59.30
2023-01-01T15:34:58.051Z,59.40
2023-01-01T15:37:34.767Z,59.40
2023-01-01T15:40:31.461Z,59.40
2023-01-01T15:43:23.365Z,59.40
2023-01-01T15:45:56.386Z,59.70
2023-01-01T15:48:37.432Z,59.60
2023-01-01T15:51:15.573Z,59.60
2023-01-01T15:53:59.934Z,59.60
2023-01-01T15:56:31.858Z,59.60
2023-01-01T15:59:08.663Z,59.70
2023-01-01T16:01:41.823Z,59.70
2023-01-01T16:04:15.427Z,59.70
2023-01-01T16:06:45.775Z,59.70
2023-01-01T16:09:17.014Z,59.60
2023-01-01T16:11:46.395Z,59.70
2023-01-01T16:14:15.251Z,59.50
2023-01-01T16:16:47.329Z,59.70
2023-01-01T16:19:19.163Z,59.70
2023-01-01T16:21:48.042Z,59.70
2023-01-01T16:24:20.287Z,59.80
2023-01-01T16:26:49.840Z,59.90
2023-01-01T16:29:18.367Z,60.00
2023-01-01T16:31:48.684Z,60.10
2023-01-01T16:34:17.251Z,60.20
2023-01-01T16:36:46.743Z,60.40
2023-01-01T16:39:15.365Z,60.40
2023-01-01T16:41:46.185Z,60.60
2023-01-01T16:44:15.304Z,60.70
2023-01-01T16:46:44.657Z,60.70
2023-01-01T16:49:13.280Z,60.80
2023-01-01T16:51:43.939Z,60.90
2023-01-01T16:54:12.739Z,61.00
2023-01-01T16:56:41.184Z,61.10
2023-01-01T16:59:11.652Z,61.30
2023-01-01T17:01:40.131Z,61.50
2023-01-01T17:04:08.846Z,61.50
2023-01-01T17:06:39.320Z,61.70
2023-01-01T17:09:08.373Z,61.80
2023-01-01T17:11:39.316Z,61.90
2023-01-01T17:14:08.523Z,62.10
2023-01-01T17:16:39.777Z,62.20
2023-01-01T17:19:17.977Z,62.40
2023-01-01T17:21:48.214Z,62.60
2023-01-01T17:24:17.277Z,62.50
2023-01-01T17:26:46.344Z,62.70
2023-01-01T17:29:14.788Z,62.70
2023-01-01T17:31:44.730Z,62.90
2023-01-01T17:34:14.588Z,63.10
2023-01-01T17:36:45.285Z,63.10
2023-01-01T17:39:15.708Z,63.20
2023-01-01T17:41:45.724Z,63.20
2023-01-01T17:44:14.493Z,63.40
2023-01-01T17:46:44.819Z,63.50
2023-01-01T17:49:13.860Z,63.60
2023-01-01T17:51:42.385Z,63.70
2023-01-01T17:54:13.677Z,63.80
2023-01-01T17:56:42.528Z,63.90
2023-01-01T17:59:11.515Z,63.90
2023-01-01T18:01:40.354Z,64.00
2023-01-01T18:04:11.315Z,64.10
2023-01-01T18:06:43.094Z,64.30
2023-01-01T18:09:14.846Z,64.40
2023-01-01T18:11:44.834Z,64.40
2023-01-01T18:14:17.353Z,64.40
2023-01-01T18:16:48.235Z,64.50
2023-01-01T18:19:17.971Z,64.50
2023-01-01T18:21:46.484Z,64.60
2023-01-01T18:24:16.832Z,64.60
2023-01-01T18:26:45.349Z,64.70
2023-01-01T18:29:13.945Z,64.80
2023-01-01T18:31:42.527Z,64.80
2023-01-01T18:34:11.820Z,65.00
2023-01-01T18:36:41.913Z,65.00
2023-01-01T18:39:17.932Z,65.20
2023-01-01T18:42:30.987Z,65.30
2023-01-01T18:45:13.556Z,65.60
2023-01-01T18:47:42.669Z,65.20
2023-01-01T18:50:23.655Z,65.20
2023-01-01T18:52:58.770Z,65.50
2023-01-01T18:55:28.137Z,65.50
2023-01-01T18:58:03.092Z,65.40
2023-01-01T19:00:33.272Z,65.60
2023-01-01T19:03:04.067Z,65.50
2023-01-01T19:05:34.887Z,65.60
2023-01-01T19:08:15.703Z,65.70
2023-01-01T19:10:49.984Z,66.00
2023-01-01T19:13:21.898Z,65.90
2023-01-01T19:15:53.319Z,65.80
2023-01-01T19:18:27.610Z,65.80
2023-01-01T19:21:03.029Z,65.80
2023-01-01T19:23:33.019Z,66.80
2023-01-01T19:26:05.064Z,65.90
2023-01-01T19:28:37.720Z,66.00
2023-01-01T19:31:07.636Z,66.00
2023-01-01T19:33:36.758Z,66.00
2023-01-01T19:36:06.468Z,66.00
2023-01-01T19:38:36.357Z,66.10
2023-01-01T19:41:04.764Z,66.20
2023-01-01T19:43:33.165Z,66.30
2023-01-01T19:46:01.800Z,66.30
2023-01-01T19:48:30.293Z,66.40
2023-01-01T19:50:58.672Z,66.30
2023-01-01T19:53:27.261Z,66.40
2023-01-01T19:55:57.263Z,66.50
2023-01-01T19:58:25.731Z,66.70
2023-01-01T20:00:54.190Z,66.50
2023-01-01T20:03:52.980Z,66.70
2023-01-01T20:06:13.017Z,66.70
2023-01-01T20:08:41.428Z,66.60
2023-01-01T20:11:11.398Z,66.70
2023-01-01T20:13:40.230Z,67.60
2023-01-01T20:16:09.847Z,66.80
2023-01-01T20:18:38.557Z,66.80
2023-01-01T20:21:26.695Z,66.80
2023-01-01T20:23:56.017Z,66.90
2023-01-01T20:26:26.547Z,66.90
2023-01-01T20:29:12.497Z,66.90
2023-01-01T20:31:41.872Z,67.00
2023-01-01T20:34:10.379Z,66.90
2023-01-01T20:36:56.149Z,67.00
2023-01-01T20:39:24.718Z,67.10
2023-01-01T20:41:54.739Z,67.10
2023-01-01T20:44:23.699Z,67.20
2023-01-01T20:46:52.223Z,67.20
2023-01-01T20:49:21.780Z,67.20
2023-01-01T20:51:52.254Z,67.30
2023-01-01T20:54:21.362Z,67.30
2023-01-01T20:56:50.135Z,67.40
2023-01-01T20:59:37.213Z,67.30
2023-01-01T21:02:07.292Z,67.30
2023-01-01T21:04:38.957Z,67.30
2023-01-01T21:07:09.919Z,67.30
2023-01-01T21:09:39.654Z,67.30
2023-01-01T21:12:09.561Z,67.30
2023-01-01T21:14:39.656Z,67.30
2023-01-01T21:17:22.585Z,68.20
2023-01-01T21:19:52.257Z,67.40
2023-01-01T21:22:20.950Z,67.30
2023-01-01T21:24:53.997Z,67.30
2023-01-01T21:27:30.580Z,67.30
2023-01-01T21:30:01.058Z,67.40
2023-01-01T21:32:39.456Z,67.40
2023-01-01T21:35:20.127Z,67.60
2023-01-01T21:37:50.914Z,67.70
2023-01-01T21:40:40.131Z,67.40
2023-01-01T21:43:25.811Z,67.80
2023-01-01T21:45:58.576Z,67.70
2023-01-01T21:48:32.475Z,67.60
2023-01-01T21:51:02.178Z,67.70
2023-01-01T21:53:34.224Z,67.70
2023-01-01T21:56:22.566Z,67.70
2023-01-01T21:59:08.792Z,67.80
2023-01-01T22:01:41.118Z,67.60
2023-01-01T22:04:23.508Z,67.70
2023-01-01T22:06:55.170Z,67.90
2023-01-01T22:09:26.455Z,67.80
2023-01-01T22:12:00.904Z,67.80
2023-01-01T22:14:41.825Z,67.80
2023-01-01T22:17:16.466Z,68.20
2023-01-01T22:19:46.197Z,68.00
2023-01-01T22:22:16.633Z,67.90
2023-01-01T22:24:46.661Z,67.90
2023-01-01T22:27:28.387Z,68.70
2023-01-01T22:29:57.840Z,68.00
2023-01-01T22:32:30.337Z,67.90
2023-01-01T22:35:08.228Z,67.90
2023-01-01T22:37:39.624Z,68.00
2023-01-01T22:40:22.824Z,67.90
2023-01-01T22:42:52.034Z,67.90
2023-01-01T22:45:20.979Z,67.90
2023-01-01T22:47:51.408Z,67.90
2023-01-01T22:50:24.350Z,67.90
2023-01-01T22:52:53.215Z,68.00
2023-01-01T22:55:21.697Z,67.90
2023-01-01T22:57:50.421Z,67.80
2023-01-01T23:00:20.745Z,67.90
2023-01-01T23:02:50.579Z,67.90
2023-01-01T23:05:19.216Z,67.80
2023-01-01T23:07:48.461Z,67.80
2023-01-01T23:10:17.180Z,67.80
2023-01-01T23:12:46.476Z,67.60
2023-01-01T23:15:32.750Z,67.50
2023-01-01T23:18:02.743Z,67.50
2023-01-01T23:20:32.216Z,67.70
2023-01-01T23:23:00.737Z,68.50
2023-01-01T23:25:29.602Z,67.60
2023-01-01T23:27:58.468Z,67.60
2023-01-01T23:30:27.010Z,67.60
2023-01-01T23:32:55.502Z,67.60
2023-01-01T23:35:25.637Z,67.70
2023-01-01T23:37:54.068Z,67.70
2023-01-01T23:40:23.091Z,67.70
2023-01-01T23:42:51.505Z,67.50
2023-01-01T23:45:19.992Z,67.50
2023-01-01T23:47:48.879Z,67.50
2023-01-01T23:50:17.379Z,67.20
2023-01-01T23:52:47.203Z,67.30
2023-01-01T23:55:15.569Z,67.40
2023-01-01T23:57:44.104Z,67.20
